createdAt,value
2023-04-12T00:04:04.846Z,67.42
2023-04-12T00:14:31.304Z,67.40
2023-04-12T00:24:57.222Z,67.47
2023-04-12T00:35:22.929Z,67.61
2023-04-12T00:45:49.434Z,67.65
2023-04-12T00:56:16.029Z,67.74
2023-04-12T01:06:56.331Z,67.73
2023-04-12T01:17:27.685Z,67.62
2023-04-12T01:27:55.656Z,67.32
2023-04-12T01:38:22.863Z,67.03
2023-04-12T01:48:53.109Z,67.17
2023-04-12T01:59:20.166Z,66.94
2023-04-12T02:09:46.165Z,66.89
2023-04-12T02:20:13.914Z,66.76
2023-04-12T02:30:41.731Z,66.44
2023-04-12T02:41:08.291Z,66.30
2023-04-12T02:51:34.126Z,66.05
2023-04-12T03:02:00.194Z,65.61
2023-04-12T03:12:26.275Z,65.78
2023-04-12T03:22:52.168Z,65.78
2023-04-12T03:33:17.998Z,65.47
2023-04-12T03:43:43.787Z,65.59
2023-04-12T03:54:09.868Z,65.07
2023-04-12T04:04:38.062Z,65.15
2023-04-12T04:15:07.268Z,65.03
2023-04-12T04:25:33.716Z,65.13
2023-04-12T04:35:59.793Z,65.21
2023-04-12T04:46:25.811Z,64.94
2023-04-12T04:56:51.338Z,64.70
2023-04-12T05:07:17.012Z,64.86
2023-04-12T05:17:43.502Z,64.57
2023-04-12T05:28:14.486Z,64.35
2023-04-12T05:38:40.597Z,64.64
2023-04-12T05:49:06.217Z,65.09
2023-04-12T05:59:32.308Z,65.08
2023-04-12T06:09:58.127Z,65.15
2023-04-12T06:20:24.297Z,65.24
2023-04-12T06:30:50.479Z,65.40
2023-04-12T06:41:16.557Z,66.04
2023-04-12T06:51:42.248Z,65.91
2023-04-12T07:02:08.367Z,64.87
2023-04-12T07:12:34.880Z,63.31
2023-04-12T07:23:00.627Z,62.08
2023-04-12T07:33:28.193Z,61.44
2023-04-12T07:43:55.073Z,60.69
2023-04-12T07:54:21.717Z,59.33
2023-04-12T08:04:48.365Z,59.07
2023-04-12T08:15:14.456Z,58.74
2023-04-12T08:25:40.781Z,59.16
2023-04-12T08:36:08.275Z,58.97
2023-04-12T08:46:36.751Z,58.41
2023-04-12T08:57:05.036Z,58.52
2023-04-12T09:07:31.453Z,58.46
2023-04-12T09:18:08.773Z,57.23
2023-04-12T09:28:34.283Z,56.32
2023-04-12T09:39:04.546Z,56.62
2023-04-12T09:49:41.486Z,57.15
2023-04-12T10:00:14.431Z,56.39
2023-04-12T10:10:40.706Z,55.89
2023-04-12T10:21:08.501Z,55.07
2023-04-12T10:31:35.016Z,54.18
2023-04-12T10:42:18.712Z,53.91
2023-04-12T10:52:44.262Z,53.97
2023-04-12T11:03:12.868Z,53.99
2023-04-12T11:13:40.336Z,53.60
2023-04-12T11:24:07.113Z,53.56
2023-04-12T11:34:37.603Z,53.60
2023-04-12T11:45:11.334Z,52.36
2023-04-12T11:55:41.593Z,52.31
2023-04-12T12:06:08.832Z,52.38
2023-04-12T12:16:36.188Z,52.03
2023-04-12T12:27:05.619Z,52.24
2023-04-12T12:37:32.300Z,53.02
2023-04-12T12:47:59.934Z,52.86
2023-04-12T12:58:26.119Z,51.56
2023-04-12T13:08:52.667Z,51.12
2023-04-12T13:19:18.174Z,50.75
2023-04-12T13:29:44.454Z,50.16
2023-04-12T13:40:12.002Z,50.09
2023-04-12T13:50:37.952Z,49.40
2023-04-12T14:01:04.074Z,48.64
2023-04-12T14:11:29.862Z,48.77
2023-04-12T14:21:56.903Z,48.93
2023-04-12T14:32:22.901Z,49.11
2023-04-12T14:42:48.939Z,48.58
2023-04-12T14:53:16.586Z,48.09
2023-04-12T15:03:42.863Z,47.53
2023-04-12T15:14:08.875Z,46.80
2023-04-12T15:24:34.849Z,46.49
2023-04-12T15:35:04.718Z,45.74
2023-04-12T15:45:30.961Z,45.09
2023-04-12T15:55:57.967Z,44.69
2023-04-12T16:06:25.439Z,44.96
2023-04-12T16:16:51.666Z,45.03
2023-04-12T16:27:17.542Z,45.10
2023-04-12T16:37:43.701Z,45.41
2023-04-12T16:48:09.578Z,45.63
2023-04-12T16:58:35.290Z,45.84
2023-04-12T17:09:00.975Z,46.11
2023-04-12T17:19:27.361Z,45.65
2023-04-12T17:29:54.641Z,45.93
2023-04-12T17:40:20.853Z,46.22
2023-04-12T17:50:47.196Z,46.70
2023-04-12T18:01:13.452Z,47.58
2023-04-12T18:11:39.882Z,48.52
2023-04-12T18:22:05.895Z,49.06
2023-04-12T18:32:32.253Z,49.16
2023-04-12T18:42:59.530Z,49.48
2023-04-12T18:53:25.230Z,50.05
2023-04-12T19:03:51.647Z,50.75
2023-04-12T19:14:17.597Z,51.03
2023-04-12T19:24:43.503Z,51.37
2023-04-12T19:35:11.623Z,51.95
2023-04-12T19:45:38.106Z,52.43
2023-04-12T19:56:06.294Z,52.80
2023-04-12T20:06:32.129Z,52.96
2023-04-12T20:16:58.533Z,53.41
2023-04-12T20:27:24.283Z,54.28
2023-04-12T20:37:51.451Z,54.79
2023-04-12T20:48:17.269Z,54.98
2023-04-12T20:58:44.451Z,55.41
2023-04-12T21:09:10.402Z,55.36
2023-04-12T21:19:41.092Z,55.59
2023-04-12T21:30:09.455Z,56.03
2023-04-12T21:40:33.776Z,56.09
2023-04-12T21:50:59.798Z,55.97
2023-04-12T22:01:26.154Z,56.17
2023-04-12T22:11:51.817Z,56.65
2023-04-12T22:22:17.733Z,57.22
2023-04-12T22:32:43.854Z,57.15
2023-04-12T22:43:18.333Z,57.10
2023-04-12T22:53:44.354Z,57.23
2023-04-12T23:04:11.570Z,57.35
2023-04-12T23:14:38.863Z,57.41
2023-04-12T23:25:05.241Z,57.69
2023-04-12T23:35:31.182Z,57.60
2023-04-12T23:45:58.206Z,58.07
2023-04-12T23:56:23.899Z,58.63
